createdAt,value
2023-03-29T00:06:22.628Z,100316.24
2023-03-29T00:14:48.050Z,100318.27
2023-03-29T00:23:11.636Z,100321.56
2023-03-29T00:31:35.215Z,100323.20
2023-03-29T00:39:58.520Z,100323.85
2023-03-29T00:48:30.295Z,100323.75
2023-03-29T00:56:54.707Z,100328.77
2023-03-29T01:05:24.522Z,100330.24
2023-03-29T01:13:52.982Z,100335.52
2023-03-29T01:22:29.122Z,100330.94
2023-03-29T01:31:11.284Z,100329.41
2023-03-29T01:39:37.402Z,100329.67
2023-03-29T01:48:32.681Z,100328.80
2023-03-29T01:56:58.214Z,100334.97
2023-03-29T02:05:24.650Z,100334.67
2023-03-29T02:13:51.124Z,100333.38
2023-03-29T02:22:24.133Z,100334.59
2023-03-29T02:30:57.640Z,100339.33
2023-03-29T02:39:25.518Z,100347.90
2023-03-29T02:47:54.774Z,100356.20
2023-03-29T02:56:22.161Z,100356.42
2023-03-29T03:04:45.400Z,100359.89
2023-03-29T03:13:24.710Z,100358.81
2023-03-29T03:21:49.765Z,100360.20
2023-03-29T03:30:18.257Z,100360.80
2023-03-29T03:38:59.847Z,100363.59
2023-03-29T03:47:24.153Z,100366.26
2023-03-29T03:55:49.561Z,100370.34
2023-03-29T04:04:19.731Z,100370.94
2023-03-29T04:13:02.708Z,100382.63
2023-03-29T04:21:26.590Z,100388.13
2023-03-29T04:29:49.792Z,100396.71
2023-03-29T04:38:23.610Z,100397.11
2023-03-29T04:46:48.423Z,100397.03
2023-03-29T04:55:30.836Z,100405.60
2023-03-29T05:03:58.055Z,100409.52
2023-03-29T05:12:26.619Z,100415.77
2023-03-29T05:20:53.132Z,100409.55
2023-03-29T05:29:16.673Z,100419.54
2023-03-29T05:37:41.234Z,100421.70
2023-03-29T05:46:06.281Z,100423.52
2023-03-29T05:54:30.100Z,100422.71
2023-03-29T06:02:53.923Z,100424.77
2023-03-29T06:11:18.537Z,100425.13
2023-03-29T06:20:01.161Z,100421.64
2023-03-29T06:28:26.139Z,100426.06
2023-03-29T06:36:51.227Z,100421.97
2023-03-29T06:45:16.226Z,100427.67
2023-03-29T06:53:43.018Z,100429.64
2023-03-29T07:02:07.592Z,100430.85
2023-03-29T07:10:47.590Z,100432.86
2023-03-29T07:19:31.744Z,100436.66
2023-03-29T07:28:01.634Z,100439.73
2023-03-29T07:36:25.316Z,100438.09
2023-03-29T07:44:48.653Z,100430.30
2023-03-29T07:53:12.625Z,100433.67
2023-03-29T08:01:36.077Z,100428.70
2023-03-29T08:10:10.051Z,100429.04
2023-03-29T08:18:45.097Z,100426.24
2023-03-29T08:27:08.423Z,100420.02
2023-03-29T08:35:31.600Z,100412.57
2023-03-29T08:44:29.974Z,100406.67
2023-03-29T08:53:06.806Z,100402.41
2023-03-29T09:01:54.411Z,100394.64
2023-03-29T09:10:21.309Z,100388.84
2023-03-29T09:18:47.590Z,100385.45
2023-03-29T09:27:16.872Z,100388.17
2023-03-29T09:36:02.062Z,100379.41
2023-03-29T09:44:38.520Z,100378.45
2023-03-29T09:53:05.521Z,100370.48
2023-03-29T10:01:38.722Z,100379.69
2023-03-29T10:10:02.748Z,100372.02
2023-03-29T10:18:27.789Z,100355.66
2023-03-29T10:27:00.158Z,100357.19
2023-03-29T10:35:28.325Z,100355.50
2023-03-29T10:43:51.833Z,100355.89
2023-03-29T10:52:16.574Z,100350.64
2023-03-29T11:00:59.952Z,100347.05
2023-03-29T11:09:47.879Z,100344.81
2023-03-29T11:18:16.939Z,100330.09
2023-03-29T11:26:55.796Z,100305.97
2023-03-29T11:35:41.878Z,100298.30
2023-03-29T11:44:11.166Z,100292.52
2023-03-29T11:52:36.497Z,100283.39
2023-03-29T12:01:17.931Z,100281.94
2023-03-29T12:10:00.140Z,100269.77
2023-03-29T12:18:29.084Z,100262.37
2023-03-29T12:26:58.758Z,100263.70
2023-03-29T12:35:40.460Z,100264.13
2023-03-29T12:44:24.130Z,100255.52
2023-03-29T12:52:53.980Z,100255.52
2023-03-29T13:01:37.225Z,100246.76
2023-03-29T13:10:03.506Z,100250.16
2023-03-29T13:18:44.868Z,100244.06
2023-03-29T13:27:26.339Z,100233.98
2023-03-29T13:36:05.856Z,100234.92
2023-03-29T13:44:42.075Z,100239.78
2023-03-29T13:53:12.629Z,100230.62
2023-03-29T14:01:58.088Z,100226.30
2023-03-29T14:10:35.116Z,100220.79
2023-03-29T14:19:35.624Z,100226.30
2023-03-29T14:27:58.662Z,100224.39
2023-03-29T14:36:22.800Z,100223.27
2023-03-29T14:44:46.158Z,100210.17
2023-03-29T14:53:19.958Z,100209.36
2023-03-29T15:01:46.172Z,100208.28
2023-03-29T15:10:19.349Z,100202.21
2023-03-29T15:18:44.888Z,100200.71
2023-03-29T15:27:18.341Z,100193.64
2023-03-29T15:35:42.764Z,100192.67
2023-03-29T15:44:06.510Z,100195.11
2023-03-29T15:52:29.647Z,100199.98
2023-03-29T16:01:13.510Z,100202.17
2023-03-29T16:09:37.175Z,100202.47
2023-03-29T16:18:00.871Z,100205.71
2023-03-29T16:26:26.341Z,100204.98
2023-03-29T16:34:49.337Z,100200.84
2023-03-29T16:43:16.786Z,100195.67
2023-03-29T16:51:40.881Z,100187.86
2023-03-29T17:00:06.291Z,100179.27
2023-03-29T17:08:29.311Z,100174.76
2023-03-29T17:16:55.470Z,100178.17
2023-03-29T17:25:18.971Z,100180.98
2023-03-29T17:33:42.113Z,100183.27
2023-03-29T17:42:06.265Z,100186.05
2023-03-29T17:50:29.605Z,100190.73
2023-03-29T17:58:53.048Z,100192.48
2023-03-29T18:07:16.891Z,100198.44
2023-03-29T18:15:40.057Z,100208.98
2023-03-29T18:24:03.967Z,100212.88
2023-03-29T18:32:28.209Z,100217.03
2023-03-29T18:40:52.018Z,100217.09
2023-03-29T18:49:16.522Z,100215.52
2023-03-29T18:57:39.716Z,100202.05
2023-03-29T19:06:05.088Z,100194.84
2023-03-29T19:14:29.403Z,100196.41
2023-03-29T19:22:53.936Z,100196.63
2023-03-29T19:31:17.183Z,100195.89
2023-03-29T19:39:41.759Z,100192.48
2023-03-29T19:48:04.895Z,100191.74
2023-03-29T19:56:28.175Z,100194.99
2023-03-29T20:04:51.276Z,100184.76
2023-03-29T20:13:21.805Z,100175.73
2023-03-29T20:21:50.831Z,100176.38
2023-03-29T20:30:14.728Z,100170.13
2023-03-29T20:38:39.817Z,100165.14
2023-03-29T20:47:05.115Z,100154.25
2023-03-29T20:55:31.428Z,100148.68
2023-03-29T21:03:57.182Z,100135.34
2023-03-29T21:12:21.098Z,100124.39
2023-03-29T21:20:44.606Z,100118.36
2023-03-29T21:29:08.033Z,100112.15
2023-03-29T21:37:31.225Z,100111.66
2023-03-29T21:45:55.644Z,100115.88
2023-03-29T21:54:20.095Z,100117.19
2023-03-29T22:02:43.385Z,100118.39
2023-03-29T22:11:11.879Z,100117.52
2023-03-29T22:19:39.716Z,100116.46
2023-03-29T22:28:03.066Z,100113.19
2023-03-29T22:36:31.197Z,100101.15
2023-03-29T22:44:54.830Z,100092.36
2023-03-29T22:53:18.116Z,100078.66
2023-03-29T23:01:42.548Z,100080.70
2023-03-29T23:10:07.235Z,100077.09
2023-03-29T23:18:32.660Z,100066.27
2023-03-29T23:26:56.368Z,100059.46
2023-03-29T23:35:22.081Z,100053.33
2023-03-29T23:43:47.446Z,100045.73
2023-03-29T23:52:12.612Z,100044.89
